Time;durP1;ratioP1;P1;durP2;ratioP2;P2;SDS_P1;SDS_P2;PMS_P1;PMS_P2;Temp;Humidity;BMP_temperature;BMP_pressure;BME280_temperature;BME280_humidity;BME280_pressure;Samples;Min_cycle;Max_cycle;Signal;HPM_P1;HPM_P2
2021/04/11 00:01:34;;;;;;;31.63;26.20;;;;;;;8.19;75.29;100354.22;5029037;28;20116;-71
2021/04/11 00:04:00;;;;;;;36.38;29.08;;;;;;;8.17;75.51;100351.56;5033739;28;20041;-71
2021/04/11 00:06:25;;;;;;;31.13;25.88;;;;;;;8.21;75.59;100355.09;5033915;28;20029;-71
2021/04/11 00:08:50;;;;;;;30.92;26.48;;;;;;;8.24;75.15;100348.06;5040674;28;20436;-71
2021/04/11 00:11:16;;;;;;;30.80;25.75;;;;;;;8.28;75.25;100335.84;5033720;28;20527;-71
2021/04/11 00:13:41;;;;;;;32.58;27.02;;;;;;;8.32;74.70;100335.81;5033379;28;20034;-71
2021/04/11 00:16:07;;;;;;;30.73;25.35;;;;;;;8.37;74.72;100340.19;5033533;28;20489;-70
2021/04/11 00:18:33;;;;;;;32.55;25.67;;;;;;;8.40;74.79;100327.94;5048935;28;20041;-72
2021/04/11 00:20:59;;;;;;;31.60;25.58;;;;;;;8.43;74.71;100332.34;5033436;28;20025;-71
2021/04/11 00:23:27;;;;;;;33.55;28.10;;;;;;;8.45;74.69;100317.44;5033325;28;20025;-72
2021/04/11 00:25:53;;;;;;;31.05;26.23;;;;;;;8.46;74.82;100321.81;5033432;28;20103;-72
2021/04/11 00:28:18;;;;;;;31.58;25.55;;;;;;;8.44;74.77;100316.56;5033307;28;20541;-72
2021/04/11 00:30:44;;;;;;;30.63;27.08;;;;;;;8.46;74.60;100319.16;5048609;28;20071;-72
2021/04/11 00:33:27;;;;;;;31.33;26.05;;;;;;;8.47;75.11;100319.19;5048244;28;20037;-72
2021/04/11 00:36:01;;;;;;;29.67;24.45;;;;;;;8.47;74.89;100313.06;5033328;28;20033;-72
2021/04/11 00:38:28;;;;;;;29.77;25.83;;;;;;;8.47;74.68;100302.53;5023639;28;20041;-72
2021/04/11 00:40:57;;;;;;;30.52;25.85;;;;;;;8.46;74.83;100306.03;5033219;28;20045;-72
2021/04/11 00:43:24;;;;;;;30.58;25.55;;;;;;;8.46;75.14;100300.75;5040040;28;20033;-71
2021/04/11 00:46:14;;;;;;;29.30;25.27;;;;;;;8.49;74.46;100298.16;5032928;28;20525;-70
2021/04/11 00:48:40;;;;;;;31.45;26.42;;;;;;;8.53;74.66;100299.88;5039962;28;20079;-71
2021/04/11 00:51:15;;;;;;;29.63;26.15;;;;;;;8.52;74.31;100295.50;5019291;28;20045;-72
2021/04/11 00:53:41;;;;;;;29.95;24.63;;;;;;;8.51;74.55;100296.38;5023257;28;20040;-72
2021/04/11 00:56:08;;;;;;;31.40;26.27;;;;;;;8.51;74.39;100289.38;5032827;28;20029;-71
2021/04/11 00:58:34;;;;;;;29.13;24.83;;;;;;;8.54;74.53;100296.38;5032807;28;20465;-71
2021/04/11 01:01:01;;;;;;;31.88;24.75;;;;;;;8.56;74.82;100282.34;5047938;28;20493;-71
2021/04/11 01:03:29;;;;;;;30.73;25.98;;;;;;;8.56;74.94;100284.09;5032398;28;20429;-71
2021/04/11 01:05:57;;;;;;;30.35;25.33;;;;;;;8.60;74.47;100283.22;5039877;28;20496;-71
2021/04/11 01:08:27;;;;;;;33.53;26.75;;;;;;;8.62;73.94;100277.94;5047596;28;20116;-70
2021/04/11 01:11:01;;;;;;;28.70;24.30;;;;;;;8.63;74.08;100269.19;5032768;28;20039;-71
2021/04/11 01:13:28;;;;;;;30.35;25.45;;;;;;;8.61;74.59;100276.19;5047474;28;20033;-71
2021/04/11 01:15:55;;;;;;;31.00;26.83;;;;;;;8.62;74.31;100273.59;5032383;28;20404;-73
2021/04/11 01:18:22;;;;;;;28.70;23.70;;;;;;;8.64;74.06;100269.16;5039572;28;20045;-70
2021/04/11 01:20:48;;;;;;;35.90;27.98;;;;;;;8.68;73.65;100257.78;5032321;28;20036;-71
2021/04/11 01:23:43;;;;;;;29.92;25.00;;;;;;;8.67;74.36;100253.41;5032192;28;20113;-71
2021/04/11 01:26:10;;;;;;;28.83;23.88;;;;;;;8.65;73.99;100251.66;5032205;28;20037;-72
2021/04/11 01:28:40;;;;;;;29.65;24.75;;;;;;;8.67;74.18;100256.03;5032262;28;20064;-71
2021/04/11 01:31:06;;;;;;;28.80;24.88;;;;;;;8.70;74.16;100247.25;5039176;28;20034;-71
2021/04/11 01:33:38;;;;;;;30.27;25.88;;;;;;;8.70;73.94;100242.84;5031961;28;20069;-71
2021/04/11 01:36:08;;;;;;;31.92;23.95;;;;;;;8.73;73.89;100242.84;5022835;28;20037;-71
2021/04/11 01:38:36;;;;;;;34.35;24.80;;;;;;;8.73;73.99;100237.59;5039093;28;20034;-72
2021/04/11 01:41:22;;;;;;;31.48;26.33;;;;;;;8.68;74.25;100228.81;5032017;28;20550;-71
2021/04/11 01:43:50;;;;;;;32.30;24.75;;;;;;;8.67;74.21;100224.47;5046917;28;20057;-71
2021/04/11 01:46:17;;;;;;;36.25;27.55;;;;;;;8.63;73.82;100217.44;5028912;28;20033;-72
2021/04/11 01:48:43;;;;;;;31.95;25.63;;;;;;;8.64;74.28;100215.69;5020286;28;20451;-72
2021/04/11 01:51:12;;;;;;;31.90;26.27;;;;;;;8.65;73.92;100214.81;5027419;28;20034;-71
2021/04/11 01:53:39;;;;;;;32.65;26.75;;;;;;;8.65;74.11;100213.06;5035028;28;20090;-72
2021/04/11 01:56:06;;;;;;;34.65;26.27;;;;;;;8.68;74.08;100210.41;5031745;28;20033;-71
2021/04/11 01:58:37;;;;;;;32.42;28.40;;;;;;;8.69;73.80;100199.00;5046973;28;20064;-71
2021/04/11 02:01:30;;;;;;;32.33;27.83;;;;;;;8.69;73.92;100198.13;5019156;28;20044;-72
2021/04/11 02:04:00;;;;;;;30.13;25.35;;;;;;;8.66;74.37;100198.13;5038594;28;20025;-71
2021/04/11 02:06:27;;;;;;;30.92;24.70;;;;;;;8.67;74.14;100197.25;5038958;28;20409;-71
2021/04/11 02:09:11;;;;;;;30.40;24.58;;;;;;;8.66;74.27;100193.75;5046677;28;20041;-71
2021/04/11 02:11:46;;;;;;;32.53;25.80;;;;;;;8.68;73.75;100186.72;5031212;28;20041;-72
2021/04/11 02:14:12;;;;;;;34.33;27.35;;;;;;;8.67;74.18;100192.88;5031408;28;20676;-71
2021/04/11 02:16:38;;;;;;;33.40;27.85;;;;;;;8.69;73.77;100192.88;5046696;28;20033;-71
2021/04/11 02:19:11;;;;;;;30.73;23.48;;;;;;;8.72;73.64;100192.84;5030884;28;20069;-71
2021/04/11 02:21:38;;;;;;;31.50;25.35;;;;;;;8.71;74.21;100181.47;5046513;28;20463;-71
2021/04/11 02:24:08;;;;;;;40.25;27.40;;;;;;;8.72;73.55;100183.22;5046545;28;20033;-71
2021/04/11 02:26:36;;;;;;;34.10;25.70;;;;;;;8.75;73.43;100180.56;5046622;28;20037;-71
2021/04/11 02:29:06;;;;;;;30.17;25.45;;;;;;;8.79;73.60;100168.25;5046373;28;20482;-70
2021/04/11 02:31:32;;;;;;;30.88;25.10;;;;;;;8.75;73.16;100170.06;5046628;28;20508;-71
2021/04/11 02:34:05;;;;;;;28.73;24.08;;;;;;;8.76;73.72;100166.53;5046505;28;20122;-71
2021/04/11 02:36:42;;;;;;;30.45;24.10;;;;;;;8.77;73.85;100162.13;5046546;28;20037;-71
2021/04/11 02:39:14;;;;;;;33.08;26.70;;;;;;;8.78;73.58;100161.28;5030017;28;20501;-71
2021/04/11 02:41:41;;;;;;;27.75;24.23;;;;;;;8.78;73.75;100151.59;5037837;28;20037;-71
2021/04/11 02:44:07;;;;;;;39.05;27.90;;;;;;;8.80;73.66;100161.25;5031068;28;20117;-70
2021/04/11 02:46:35;;;;;;;31.88;25.48;;;;;;;8.76;73.32;100165.66;5031019;28;20040;-71
2021/04/11 02:49:03;;;;;;;32.33;25.00;;;;;;;8.75;73.27;100150.72;5030954;28;20045;-70
2021/04/11 02:51:31;;;;;;;30.88;24.65;;;;;;;8.73;73.17;100168.31;5036409;28;20398;-71
2021/04/11 02:54:05;;;;;;;34.45;26.50;;;;;;;8.73;73.19;100161.28;5036173;28;20056;-71
2021/04/11 02:56:40;;;;;;;30.83;24.48;;;;;;;8.72;73.18;100172.69;5031059;28;20497;-71
2021/04/11 02:59:10;;;;;;;34.53;25.17;;;;;;;8.62;73.65;100176.25;5037995;28;20048;-71
2021/04/11 03:01:40;;;;;;;32.78;24.83;;;;;;;8.68;73.50;100163.06;5021436;28;20029;-71
2021/04/11 03:04:06;;;;;;;33.40;24.50;;;;;;;8.68;73.30;100157.78;5046040;28;20029;-71
2021/04/11 03:06:39;;;;;;;33.72;25.15;;;;;;;8.73;73.34;100155.16;5031008;28;20116;-71
2021/04/11 03:09:13;;;;;;;32.75;25.00;;;;;;;8.73;72.92;100148.13;5030684;28;20033;-71
2021/04/11 03:11:49;;;;;;;31.00;25.60;;;;;;;8.76;73.18;100145.47;5037683;28;20034;-72
2021/04/11 03:14:25;;;;;;;31.08;24.25;;;;;;;8.78;73.10;100146.34;5032532;28;20026;-71
2021/04/11 03:16:53;;;;;;;35.55;25.33;;;;;;;8.77;73.07;100143.72;5031081;28;20041;-71
2021/04/11 03:19:27;;;;;;;35.10;25.38;;;;;;;8.77;72.99;100143.72;5030708;28;20108;-71
2021/04/11 03:21:54;;;;;;;33.33;24.73;;;;;;;8.80;73.15;100137.56;5037632;28;20045;-71
2021/04/11 03:24:21;;;;;;;32.80;25.42;;;;;;;8.80;72.53;100130.53;5030842;28;20083;-71
2021/04/11 03:27:06;;;;;;;33.10;26.55;;;;;;;8.77;72.95;100125.28;5030566;28;20512;-71
2021/04/11 03:29:39;;;;;;;34.03;26.10;;;;;;;8.77;72.92;100123.53;5046011;28;20029;-71
2021/04/11 03:32:43;;;;;;;36.22;28.02;;;;;;;8.71;72.83;100122.69;5032628;28;20400;-71
2021/04/11 03:35:15;;;;;;;33.38;24.45;;;;;;;8.68;73.15;100128.84;4981178;28;20035;-71
2021/04/11 03:37:46;;;;;;;31.27;25.35;;;;;;;8.66;72.90;100121.84;5037970;28;20045;-72
2021/04/11 03:40:17;;;;;;;33.55;26.15;;;;;;;8.65;72.98;100123.63;5030396;28;20077;-72
2021/04/11 03:42:47;;;;;;;31.48;24.38;;;;;;;8.61;72.98;100121.88;5045883;28;20046;-72
2021/04/11 03:45:15;;;;;;;33.03;25.35;;;;;;;8.59;73.21;100118.38;5034249;28;20203;-72
2021/04/11 03:48:07;;;;;;;31.27;24.63;;;;;;;8.55;73.29;100116.66;5049452;28;20509;-71
2021/04/11 03:50:38;;;;;;;29.63;23.00;;;;;;;8.56;73.29;100118.38;5039645;28;20103;-72
2021/04/11 03:53:32;;;;;;;33.10;24.00;;;;;;;8.54;72.95;100114.88;5029739;28;20037;-72
2021/04/11 03:56:07;;;;;;;29.90;23.85;;;;;;;8.53;72.65;100118.41;5028401;28;20079;-71
2021/04/11 03:58:48;;;;;;;30.27;23.48;;;;;;;8.54;72.97;100114.88;5028704;28;20042;-72
2021/04/11 04:01:38;;;;;;;29.98;24.23;;;;;;;8.55;73.21;100111.38;5041039;28;20029;-72
2021/04/11 04:04:12;;;;;;;33.17;25.23;;;;;;;8.55;72.91;100116.66;5041001;28;20033;-72
2021/04/11 04:07:00;;;;;;;27.77;22.52;;;;;;;8.59;72.78;100115.72;5046826;28;20033;-72
2021/04/11 04:09:27;;;;;;;31.80;23.88;;;;;;;8.62;72.94;100112.22;5022107;28;20051;-72
2021/04/11 04:12:31;;;;;;;32.05;23.67;;;;;;;8.59;72.99;100107.84;5023861;28;20520;-72
2021/04/11 04:15:16;;;;;;;33.45;25.25;;;;;;;8.55;72.98;100108.75;5040830;28;20041;-72
2021/04/11 04:18:08;;;;;;;35.03;25.75;;;;;;;8.52;72.92;100100.88;5048940;28;20116;-71
2021/04/11 04:20:43;;;;;;;35.95;25.17;;;;;;;8.51;72.88;100107.91;5032536;28;20119;-70
2021/04/11 04:23:34;;;;;;;33.03;23.42;;;;;;;8.47;73.23;100105.28;5040516;28;20076;-71
2021/04/11 04:26:44;;;;;;;30.48;24.33;;;;;;;8.42;73.63;100102.66;5040626;28;20148;-71
2021/04/11 04:29:31;;;;;;;;;;;;;;;8.34;73.64;100102.66;5032051;28;20040;-71
2021/04/11 04:32:21;;;;;;;34.95;26.20;;;;;;;8.33;73.01;100095.66;5038881;28;20290;-72
2021/04/11 04:35:22;;;;;;;31.10;24.13;;;;;;;8.26;73.46;100101.81;5040502;28;20045;-70
2021/04/11 04:38:13;;;;;;;32.35;26.10;;;;;;;8.25;73.48;100094.81;5040240;28;20072;-72
2021/04/11 04:41:01;;;;;;;35.67;27.55;;;;;;;8.24;73.83;100094.81;5048542;28;20037;-72
2021/04/11 04:43:37;;;;;;;34.70;26.23;;;;;;;8.24;74.22;100100.94;5021039;28;20112;-73
2021/04/11 04:46:52;;;;;;;33.25;25.15;;;;;;;8.25;74.15;100092.19;5048699;28;20044;-71
2021/04/11 04:49:45;;;;;;;29.67;23.85;;;;;;;8.30;74.10;100086.91;5019063;28;20053;-71
2021/04/11 04:52:18;;;;;;;33.33;25.05;;;;;;;8.33;74.27;100094.78;5028509;28;20417;-69
2021/04/11 04:54:49;;;;;;;34.42;25.58;;;;;;;8.34;74.01;100097.41;5039972;28;20104;-69
2021/04/11 04:57:25;;;;;;;31.27;23.85;;;;;;;8.42;73.81;100100.03;5015115;28;20390;-69
2021/04/11 05:00:06;;;;;;;33.17;26.40;;;;;;;8.43;74.07;100096.50;5009422;28;20026;-70
2021/04/11 05:03:03;;;;;;;32.30;25.42;;;;;;;8.44;74.06;100092.16;5005982;28;20080;-71
2021/04/11 05:05:30;;;;;;;32.33;25.95;;;;;;;8.48;73.88;100093.88;5019649;28;20030;-71
2021/04/11 05:08:03;;;;;;;37.67;27.00;;;;;;;8.49;73.64;100096.50;5016453;28;20037;-70
2021/04/11 05:10:38;;;;;;;32.63;25.63;;;;;;;8.51;73.63;100093.84;5026002;28;20076;-71
2021/04/11 05:13:22;;;;;;;33.45;24.52;;;;;;;8.51;74.11;100096.47;5013509;28;20033;-71
2021/04/11 05:16:12;;;;;;;31.80;24.08;;;;;;;8.58;73.58;100097.34;5011897;28;20022;-71
2021/04/11 05:18:44;;;;;;;32.00;24.85;;;;;;;8.64;73.11;100090.28;5026852;28;20029;-70
2021/04/11 05:21:22;;;;;;;34.03;26.42;;;;;;;8.68;73.71;100084.13;5033671;28;20505;-71
2021/04/11 05:23:53;;;;;;;35.28;25.17;;;;;;;8.72;73.53;100082.34;5047297;28;20196;-71
2021/04/11 05:26:43;;;;;;;30.02;23.60;;;;;;;8.76;73.19;100094.63;5047667;28;20041;-71
2021/04/11 05:29:43;;;;;;;28.55;22.42;;;;;;;8.83;73.23;100080.53;5032208;28;20040;-71
2021/04/11 05:32:10;;;;;;;33.22;23.85;;;;;;;8.91;72.51;100075.22;5031934;28;20064;-71
2021/04/11 05:34:35;;;;;;;35.42;23.73;;;;;;;8.99;72.97;100081.31;5032094;28;20025;-71
2021/04/11 05:37:10;;;;;;;32.97;22.13;;;;;;;9.08;72.16;100078.59;5032079;28;20485;-72
2021/04/11 05:39:43;;;;;;;31.58;24.30;;;;;;;9.15;72.30;100072.41;5039071;28;20037;-71
2021/04/11 05:42:28;;;;;;;33.55;21.92;;;;;;;9.26;71.87;100077.59;5031748;28;20496;-72
2021/04/11 05:45:10;;;;;;;28.67;21.23;;;;;;;9.39;71.63;100081.00;5032068;28;20037;-71
2021/04/11 05:47:47;;;;;;;28.67;22.80;;;;;;;9.50;71.55;100065.97;5031960;28;20440;-71
2021/04/11 05:50:23;;;;;;;28.88;23.48;;;;;;;9.62;71.16;100067.63;5016620;28;20042;-72
2021/04/11 05:53:07;;;;;;;31.08;23.20;;;;;;;9.65;70.21;100063.19;5031377;28;20033;-72
2021/04/11 05:55:36;;;;;;;31.23;22.33;;;;;;;9.77;70.45;100058.69;5021966;28;20117;-72
2021/04/11 05:58:11;;;;;;;33.38;21.90;;;;;;;9.92;69.70;100063.78;5031755;28;20474;-72
2021/04/11 06:00:44;;;;;;;28.08;21.33;;;;;;;10.05;69.64;100067.16;5031649;28;20037;-74
2021/04/11 06:03:15;;;;;;;29.35;20.52;;;;;;;10.21;68.86;100067.84;5031607;28;20032;-72
2021/04/11 06:05:53;;;;;;;25.13;19.52;;;;;;;10.41;68.40;100071.16;5031623;28;20073;-72
2021/04/11 06:08:35;;;;;;;25.90;18.88;;;;;;;10.55;68.30;100063.06;5019070;28;20481;-72
2021/04/11 06:11:45;;;;;;;24.47;18.17;;;;;;;10.59;67.69;100063.91;5031854;28;20037;-72
2021/04/11 06:14:21;;;;;;;23.38;17.25;;;;;;;10.72;66.94;100061.06;5014928;28;20071;-72
2021/04/11 06:16:49;;;;;;;23.88;18.25;;;;;;;10.85;67.32;100069.69;5031825;28;20045;-78
2021/04/11 06:19:14;;;;;;;25.50;18.10;;;;;;;10.92;66.69;100073.94;5021040;28;20058;-73
2021/04/11 06:21:46;;;;;;;22.08;17.38;;;;;;;10.99;66.94;100076.53;5016921;28;20452;-73
2021/04/11 06:24:25;;;;;;;20.77;16.98;;;;;;;11.06;65.72;100071.13;5015678;28;20041;-73
2021/04/11 06:27:05;;;;;;;22.55;16.08;;;;;;;11.17;65.95;100068.31;5030398;28;20460;-73
2021/04/11 06:29:47;;;;;;;22.75;17.45;;;;;;;11.23;66.04;100062.91;5041366;28;20040;-73
2021/04/11 06:32:13;;;;;;;24.13;16.60;;;;;;;11.24;65.84;100064.69;5011178;28;20626;-73
2021/04/11 06:34:43;;;;;;;22.38;14.32;;;;;;;11.28;65.78;100071.66;5013398;28;20104;-73
2021/04/11 06:37:13;;;;;;;20.17;13.30;;;;;;;11.43;65.68;100073.16;5020353;28;20057;-73
2021/04/11 06:39:42;;;;;;;17.88;11.88;;;;;;;11.56;64.26;100066.78;5021045;28;20457;-73
2021/04/11 06:42:33;;;;;;;16.13;10.98;;;;;;;11.68;63.87;100072.72;5022254;28;20053;-73
2021/04/11 06:45:16;;;;;;;14.15;9.68;;;;;;;11.87;61.93;100065.34;5023049;28;20437;-73
2021/04/11 06:48:03;;;;;;;14.93;9.07;;;;;;;12.07;61.56;100061.44;5023223;28;20079;-73
2021/04/11 06:50:55;;;;;;;12.32;8.55;;;;;;;12.27;61.54;100055.75;5013863;28;20038;-73
2021/04/11 06:53:36;;;;;;;13.05;7.55;;;;;;;12.43;60.11;100052.78;5028621;28;20065;-72
2021/04/11 06:56:09;;;;;;;10.57;6.68;;;;;;;12.58;58.55;100057.75;5021565;28;20033;-73
2021/04/11 06:58:46;;;;;;;13.95;6.25;;;;;;;12.76;58.65;100048.53;5037992;28;20033;-73
2021/04/11 07:02:00;;;;;;;9.32;4.80;;;;;;;12.83;54.58;100050.09;5015315;28;20049;-73
2021/04/11 07:04:25;;;;;;;11.20;5.38;;;;;;;12.88;55.19;100042.94;5019045;28;20036;-73
2021/04/11 07:07:33;;;;;;;8.63;4.50;;;;;;;13.06;53.37;100035.47;5041737;28;20565;-73
2021/04/11 07:10:30;;;;;;;8.60;4.35;;;;;;;13.13;53.95;100037.94;5034879;28;20041;-73
2021/04/11 07:13:20;;;;;;;6.63;4.47;;;;;;;13.14;53.62;100039.66;5034510;28;20042;-72
2021/04/11 07:15:57;;;;;;;8.30;4.10;;;;;;;13.09;52.43;100040.69;5041902;28;20041;-72
2021/04/11 07:19:01;;;;;;;9.27;3.63;;;;;;;13.10;52.37;100040.66;5034806;28;20164;-75
2021/04/11 07:21:54;;;;;;;7.28;3.55;;;;;;;13.19;53.35;100038.69;5023170;28;20029;-74
2021/04/11 07:24:44;;;;;;;6.72;3.63;;;;;;;13.24;52.86;100040.31;5021167;28;20033;-73
2021/04/11 07:27:33;;;;;;;7.68;4.15;;;;;;;13.31;51.96;100041.06;5017292;28;20116;-74
2021/04/11 07:30:20;;;;;;;7.63;3.47;;;;;;;13.37;51.40;100036.47;5034788;28;20040;-74
2021/04/11 07:33:04;;;;;;;7.18;3.33;;;;;;;13.47;51.67;100030.94;5034261;28;20128;-71
2021/04/11 07:36:00;;;;;;;7.78;3.95;;;;;;;13.54;51.31;100024.56;5025179;28;20076;-74
2021/04/11 07:39:00;;;;;;;6.47;3.13;;;;;;;13.77;50.95;100026.59;5021272;28;20033;-74
2021/04/11 07:41:55;;;;;;;8.57;3.53;;;;;;;14.05;49.43;100032.00;5021351;28;20120;-74
2021/04/11 07:44:53;;;;;;;8.40;3.25;;;;;;;14.21;49.10;100029.78;5020824;28;20436;-73
2021/04/11 07:47:40;;;;;;;6.22;3.60;;;;;;;14.33;49.14;100029.44;5021612;28;20124;-74
2021/04/11 07:50:29;;;;;;;8.25;3.33;;;;;;;14.51;48.99;100021.81;5041236;28;20030;-75
2021/04/11 07:53:05;;;;;;;8.20;3.63;;;;;;;14.66;47.95;100026.69;5033682;28;20045;-75
2021/04/11 07:55:59;;;;;;;7.15;3.83;;;;;;;14.79;47.44;100028.03;5041275;28;20037;-74
2021/04/11 07:58:43;;;;;;;6.75;3.45;;;;;;;14.85;46.96;100025.19;5031602;28;20087;-75
2021/04/11 08:01:27;;;;;;;6.57;3.03;;;;;;;14.90;46.94;100020.59;5033817;28;20485;-75
2021/04/11 08:04:26;;;;;;;8.80;3.45;;;;;;;14.94;46.29;100025.84;5023953;28;20034;-75
2021/04/11 08:06:59;;;;;;;7.88;3.45;;;;;;;14.98;46.49;100022.13;5007892;28;20026;-75
2021/04/11 08:09:46;;;;;;;7.80;3.33;;;;;;;14.96;46.36;100019.56;5031233;28;20128;-75
2021/04/11 08:12:23;;;;;;;8.35;3.13;;;;;;;14.87;47.53;100015.38;5029178;28;20033;-75
2021/04/11 08:15:13;;;;;;;7.55;3.00;;;;;;;14.72;46.83;100026.50;5009346;28;20524;-75
2021/04/11 08:18:12;;;;;;;6.93;2.80;;;;;;;14.52;45.03;100012.94;5023506;28;20041;-75
2021/04/11 08:20:56;;;;;;;7.88;3.10;;;;;;;14.46;47.31;100013.97;5024671;28;20037;-75
2021/04/11 08:23:52;;;;;;;6.05;2.47;;;;;;;14.39;47.89;100013.31;5020108;28;20477;-75
2021/04/11 08:26:30;;;;;;;5.07;2.70;;;;;;;14.38;47.93;100010.69;5019181;28;20041;-75
2021/04/11 08:29:11;;;;;;;7.75;3.00;;;;;;;14.48;46.83;100013.00;5033289;28;20030;-77
2021/04/11 08:32:14;;;;;;;6.97;2.95;;;;;;;14.65;46.74;100017.00;5040399;28;20056;-74
2021/04/11 08:35:28;;;;;;;5.45;2.65;;;;;;;14.90;46.80;100009.09;5016397;28;20092;-74
2021/04/11 08:38:05;;;;;;;7.45;3.20;;;;;;;15.02;45.57;100002.53;4982242;28;20049;-74
2021/04/11 08:41:02;;;;;;;7.65;3.08;;;;;;;15.10;46.54;100006.66;4980469;28;20126;-76
2021/04/11 08:44:05;;;;;;;5.47;2.53;;;;;;;15.17;45.32;100012.66;5011090;28;20379;-76
2021/04/11 08:46:48;;;;;;;;;;;;;;;15.13;46.01;100013.69;5019632;28;20147;-75
2021/04/11 08:49:25;;;;;;;5.65;2.80;;;;;;;15.06;46.19;100012.13;5017637;28;19917;-75
2021/04/11 08:52:13;;;;;;;7.93;3.20;;;;;;;14.94;46.85;100009.91;5034571;28;20029;-75
2021/04/11 08:54:38;;;;;;;5.32;3.08;;;;;;;14.79;46.80;100005.94;5022396;28;20375;-75
2021/04/11 08:57:24;;;;;;;4.78;2.65;;;;;;;14.77;47.82;100005.97;5027748;28;20048;-75
2021/04/11 09:00:01;;;;;;;5.78;2.83;;;;;;;14.74;46.46;99998.09;5021197;28;20037;-75
2021/04/11 09:02:45;;;;;;;6.75;3.00;;;;;;;14.85;45.72;100001.28;5028145;28;20041;-74
2021/04/11 09:05:38;;;;;;;5.25;2.80;;;;;;;14.97;46.75;100009.78;5016509;28;20029;-74
2021/04/11 09:08:12;;;;;;;6.32;3.17;;;;;;;15.11;45.36;99999.56;5019859;28;20038;-76
2021/04/11 09:11:12;;;;;;;5.35;2.50;;;;;;;15.26;46.36;100000.84;5021051;28;20389;-75
2021/04/11 09:14:09;;;;;;;5.38;2.33;;;;;;;15.41;46.24;100004.78;5035476;28;20391;-76
2021/04/11 09:17:12;;;;;;;8.52;3.00;;;;;;;15.55;45.70;100000.69;5024071;28;20187;-75
2021/04/11 09:20:06;;;;;;;9.10;3.42;;;;;;;15.68;44.61;99994.97;5023661;28;20037;-76
2021/04/11 09:22:50;;;;;;;5.68;2.85;;;;;;;15.78;45.43;99999.06;5030183;28;20505;-75
2021/04/11 09:25:22;;;;;;;7.43;2.90;;;;;;;15.93;44.83;99998.50;5032436;28;20080;-75
2021/04/11 09:28:24;;;;;;;9.43;3.03;;;;;;;16.07;45.42;99995.31;5032265;28;20029;-75
2021/04/11 09:31:23;;;;;;;7.50;3.03;;;;;;;16.17;42.38;99991.41;5038685;28;20567;-75
2021/04/11 09:34:13;;;;;;;7.80;3.33;;;;;;;16.25;43.62;99998.22;5030011;28;20046;-75
2021/04/11 09:37:03;;;;;;;6.93;2.90;;;;;;;16.32;42.08;99989.06;5030287;28;20381;-75
2021/04/11 09:39:31;;;;;;;6.80;2.67;;;;;;;16.41;42.86;99981.59;5018918;28;20382;-75
2021/04/11 09:42:15;;;;;;;5.95;3.00;;;;;;;16.51;42.73;99984.78;5029746;28;20425;-75
2021/04/11 09:45:00;;;;;;;6.20;3.33;;;;;;;16.57;42.58;99983.66;5037317;28;20029;-75
2021/04/11 09:47:44;;;;;;;6.47;2.85;;;;;;;16.66;42.06;99980.63;5019649;28;20100;-75
2021/04/11 09:50:23;;;;;;;6.70;3.03;;;;;;;16.71;41.67;99983.09;5031852;28;20029;-75
2021/04/11 09:52:57;;;;;;;4.85;2.92;;;;;;;16.80;42.17;99988.09;5031556;28;20037;-75
2021/04/11 09:55:30;;;;;;;6.70;2.88;;;;;;;16.89;41.88;99979.72;5031945;28;20045;-75
2021/04/11 09:58:24;;;;;;;5.70;2.78;;;;;;;17.01;41.74;99981.03;5031742;28;20038;-75
2021/04/11 10:01:09;;;;;;;9.63;3.28;;;;;;;17.13;40.89;99972.50;5031731;28;20444;-75
2021/04/11 10:03:47;;;;;;;6.05;2.65;;;;;;;17.27;41.91;99970.13;5031401;28;20042;-75
2021/04/11 10:06:31;;;;;;;6.22;3.08;;;;;;;17.40;41.70;99969.63;5015228;28;20037;-75
2021/04/11 10:09:03;;;;;;;7.22;3.42;;;;;;;17.54;41.00;99972.53;5006913;28;20036;-75
2021/04/11 10:12:05;;;;;;;5.30;2.60;;;;;;;17.61;40.53;99968.69;5012723;28;20117;-77
2021/04/11 10:14:41;;;;;;;6.22;3.00;;;;;;;17.64;40.80;99973.00;5014915;28;20350;-76
2021/04/11 10:17:26;;;;;;;7.30;3.20;;;;;;;17.82;40.64;99972.22;5019878;28;20033;-76
2021/04/11 10:20:06;;;;;;;6.43;2.75;;;;;;;17.94;41.05;99973.47;5031500;28;20084;-75
2021/04/11 10:22:37;;;;;;;6.97;3.15;;;;;;;18.00;40.08;99965.19;5029960;28;20044;-75
2021/04/11 10:25:20;;;;;;;9.60;3.50;;;;;;;18.12;40.16;99967.28;5031395;28;20040;-76
2021/04/11 10:28:10;;;;;;;8.77;3.47;;;;;;;18.26;38.98;99963.97;5031156;28;20501;-74
2021/04/11 10:30:37;;;;;;;6.18;3.42;;;;;;;18.36;39.41;99965.25;5031427;28;20608;-77
2021/04/11 10:33:34;;;;;;;6.05;3.00;;;;;;;18.39;38.82;99965.13;5030901;28;20043;-76
2021/04/11 10:36:21;;;;;;;7.20;3.95;;;;;;;18.54;38.23;99959.97;4989033;28;20489;-76
2021/04/11 10:39:00;;;;;;;6.88;3.45;;;;;;;18.62;37.61;99953.31;5038286;28;20039;-75
2021/04/11 10:41:50;;;;;;;7.15;2.97;;;;;;;18.79;38.59;99957.88;5021541;28;20029;-76
2021/04/11 10:44:38;;;;;;;6.70;3.05;;;;;;;18.95;38.88;99955.31;5009453;28;20447;-76
2021/04/11 10:47:30;;;;;;;7.68;2.90;;;;;;;19.18;37.60;99947.97;5031153;28;20072;-75
2021/04/11 10:50:04;;;;;;;8.63;4.15;;;;;;;19.47;36.88;99954.47;5030966;28;20135;-76
2021/04/11 10:52:48;;;;;;;6.22;3.75;;;;;;;19.70;35.71;99946.13;5030685;28;20029;-76
2021/04/11 10:55:41;;;;;;;7.45;3.92;;;;;;;20.08;37.19;99945.88;5006188;28;20493;-75
2021/04/11 10:58:24;;;;;;;6.57;3.53;;;;;;;20.46;34.91;99944.69;5013681;28;20120;-75
2021/04/11 11:01:21;;;;;;;6.45;3.58;;;;;;;20.82;34.44;99941.75;5015618;28;20030;-72
2021/04/11 11:04:11;;;;;;;8.27;4.00;;;;;;;21.19;34.37;99936.91;5022843;28;20045;-76
2021/04/11 11:07:01;;;;;;;6.70;4.15;;;;;;;21.32;33.13;99948.63;5037996;28;20037;-75
2021/04/11 11:09:44;;;;;;;7.22;4.20;;;;;;;21.36;32.92;99939.44;5018828;28;20033;-75
2021/04/11 11:12:33;;;;;;;7.15;3.67;;;;;;;21.35;32.58;99932.38;5034307;28;20053;-75
2021/04/11 11:15:22;;;;;;;7.57;3.83;;;;;;;21.52;34.22;99941.25;5029272;28;20563;-75
2021/04/11 11:18:17;;;;;;;6.47;3.65;;;;;;;21.29;32.95;99935.41;5030698;28;20403;-75
2021/04/11 11:21:13;;;;;;;7.65;4.35;;;;;;;21.34;34.85;99932.44;5029584;28;20037;-76
2021/04/11 11:24:04;;;;;;;8.63;4.65;;;;;;;21.55;33.53;99930.31;5029959;28;20065;-76
2021/04/11 11:26:38;;;;;;;7.60;4.57;;;;;;;21.61;33.34;99933.50;5030827;28;20040;-75
2021/04/11 11:29:37;;;;;;;9.25;3.88;;;;;;;21.64;33.69;99927.94;5030715;28;20045;-77
2021/04/11 11:32:44;;;;;;;8.20;3.92;;;;;;;21.58;33.43;99932.78;5030399;28;20037;-76
2021/04/11 11:35:12;;;;;;;7.53;4.20;;;;;;;21.60;34.16;99936.25;4976538;28;20055;-75
2021/04/11 11:37:54;;;;;;;6.07;4.57;;;;;;;21.57;32.84;99931.09;5025172;28;20034;-75
2021/04/11 11:40:34;;;;;;;;;;;;;;;21.60;33.60;99934.44;5016075;28;20044;-75
2021/04/11 11:43:10;;;;;;;7.00;4.22;;;;;;;21.51;33.96;99936.81;5030392;28;20295;-75
2021/04/11 11:45:41;;;;;;;6.00;4.10;;;;;;;21.60;33.47;99930.88;5029389;28;20132;-75
2021/04/11 11:48:06;;;;;;;7.38;3.72;;;;;;;22.11;32.78;99920.50;5037576;28;20404;-75
2021/04/11 11:51:00;;;;;;;7.40;4.68;;;;;;;22.52;32.68;99917.03;5028924;28;20129;-75
2021/04/11 11:53:32;;;;;;;6.85;4.60;;;;;;;22.85;32.06;99918.44;5019446;28;20125;-75
2021/04/11 11:56:04;;;;;;;10.43;4.65;;;;;;;23.12;31.90;99915.75;5034142;28;20044;-75
2021/04/11 11:58:38;;;;;;;6.53;4.35;;;;;;;23.27;30.72;99908.47;5034027;28;20447;-75
2021/04/11 12:01:18;;;;;;;7.53;4.50;;;;;;;22.92;31.24;99907.19;5033980;28;20045;-75
2021/04/11 12:03:43;;;;;;;6.53;4.40;;;;;;;22.50;32.20;99913.56;5033775;28;20036;-75
2021/04/11 12:06:14;;;;;;;8.60;4.10;;;;;;;22.05;31.90;99905.66;5033916;28;20041;-75
2021/04/11 12:09:14;;;;;;;8.32;3.95;;;;;;;21.84;33.15;99901.63;5033694;28;20033;-75
2021/04/11 12:11:46;;;;;;;10.40;4.68;;;;;;;22.18;33.89;99903.03;5025131;28;20409;-75
2021/04/11 12:14:20;;;;;;;7.30;4.40;;;;;;;22.50;33.03;99908.19;5017729;28;20040;-75
2021/04/11 12:16:57;;;;;;;7.68;4.35;;;;;;;22.73;33.36;99903.97;5026876;28;20488;-75
2021/04/11 12:19:48;;;;;;;6.50;4.28;;;;;;;22.90;31.35;99902.88;5033680;28;20037;-75